Time;durP1;ratioP1;P1;durP2;ratioP2;P2;SDS_P1;SDS_P2;PMS_P1;PMS_P2;Temp;Humidity;BMP_temperature;BMP_pressure;BME280_temperature;BME280_humidity;BME280_pressure;Samples;Min_cycle;Max_cycle;Signal;HPM_P1;HPM_P2
2021/12/24 00:00:42;;;;;;;5.38;3.97;;;;;;;;;;5043539;28;20098;-30
2021/12/24 00:03:08;;;;;;;5.97;4.50;;;;;;;;;;5042068;28;20039;-31
2021/12/24 00:05:33;;;;;;;6.13;4.05;;;;;;;;;;5043650;28;20446;-33
2021/12/24 00:07:59;;;;;;;5.82;4.32;;;;;;;;;;5042952;28;20118;-29
2021/12/24 00:10:25;;;;;;;5.78;4.43;;;;;;;;;;5043076;28;20051;-31
2021/12/24 00:13:02;;;;;;;6.60;4.72;;;;;;;;;;5041549;28;20032;-33
2021/12/24 00:18:36;;;;;;;5.57;3.78;;;;;;;;;;5041958;28;20064;-32
2021/12/24 00:37:07;;;;;;;6.35;3.88;;;;;;;;;;5042657;28;20047;-34
2021/12/24 00:39:36;;;;;;;5.20;4.10;;;;;;;;;;5042308;28;20415;-31
2021/12/24 00:42:02;;;;;;;4.78;3.90;;;;;;;;;;5041918;28;20029;-30
2021/12/24 00:44:27;;;;;;;5.45;3.85;;;;;;;;;;5042028;28;20567;-30
2021/12/24 00:46:53;;;;;;;5.10;4.10;;;;;;;;;;5042611;28;20054;-32
2021/12/24 00:49:18;;;;;;;5.45;4.45;;;;;;;;;;5042447;28;20093;-34
2021/12/24 00:52:06;;;;;;;5.72;4.55;;;;;;;;;;5034960;28;20045;-31
2021/12/24 00:57:15;;;;;;;5.80;3.95;;;;;;;;;;5025019;28;20207;-32
2021/12/24 00:59:41;;;;;;;5.03;3.80;;;;;;;;;;5031700;28;20510;-30
2021/12/24 01:02:07;;;;;;;5.57;4.35;;;;;;;;;;5045903;28;20375;-36
2021/12/24 01:04:32;;;;;;;5.53;4.10;;;;;;;;;;5046242;28;20033;-31
2021/12/24 01:06:58;;;;;;;4.38;3.47;;;;;;;;;;5046491;28;20181;-33
2021/12/24 01:09:23;;;;;;;5.55;4.20;;;;;;;;;;5046887;28;20123;-33
2021/12/24 01:11:49;;;;;;;5.00;3.60;;;;;;;;;;5046903;28;20417;-31
2021/12/24 01:14:14;;;;;;;4.47;3.50;;;;;;;;;;5047164;28;20479;-30
2021/12/24 01:16:48;;;;;;;4.22;3.25;;;;;;;;;;5047023;28;20033;-33
2021/12/24 01:19:19;;;;;;;4.57;3.65;;;;;;;;;;5046584;28;20509;-31
2021/12/24 01:24:20;;;;;;;5.35;3.58;;;;;;;;;;5046766;28;20033;-30
2021/12/24 01:40:06;;;;;;;5.13;3.75;;;;;;;;;;5045330;28;20040;-33
2021/12/24 01:42:47;;;;;;;4.53;3.70;;;;;;;;;;5045533;28;20041;-35
2021/12/24 01:45:20;;;;;;;4.50;3.70;;;;;;;;;;5045284;28;20978;-34
2021/12/24 01:47:45;;;;;;;4.65;3.20;;;;;;;;;;5045312;28;20108;-29
2021/12/24 01:50:12;;;;;;;4.38;3.67;;;;;;;;;;5045406;28;20040;-30
2021/12/24 01:52:38;;;;;;;4.18;3.35;;;;;;;;;;5045306;28;20021;-30
2021/12/24 01:55:05;;;;;;;4.53;3.33;;;;;;;;;;5044978;28;20122;-30
2021/12/24 01:57:32;;;;;;;4.65;3.55;;;;;;;;;;5045633;28;20556;-32
2021/12/24 01:59:58;;;;;;;4.63;3.50;;;;;;;;;;5044985;28;20033;-32
2021/12/24 02:02:23;;;;;;;4.05;3.28;;;;;;;;;;5044655;28;20037;-31
2021/12/24 02:04:49;;;;;;;4.00;3.28;;;;;;;;;;5045073;28;20040;-33
2021/12/24 02:07:14;;;;;;;4.93;3.67;;;;;;;;;;5044924;28;20498;-31
2021/12/24 02:09:40;;;;;;;3.90;3.28;;;;;;;;;;5044881;28;20078;-31
2021/12/24 02:12:07;;;;;;;3.80;3.20;;;;;;;;;;5043537;28;20043;-33
2021/12/24 02:14:36;;;;;;;4.43;3.42;;;;;;;;;;5043889;28;20090;-32
2021/12/24 02:30:34;;;;;;;4.70;3.42;;;;;;;;;;5045474;28;20040;-33
2021/12/24 02:33:01;;;;;;;4.38;3.38;;;;;;;;;;5044513;28;20022;-32
2021/12/24 02:35:26;;;;;;;5.22;3.58;;;;;;;;;;5060198;28;20077;-33
2021/12/24 02:37:52;;;;;;;3.95;3.05;;;;;;;;;;5044820;28;20029;-33
2021/12/24 02:40:18;;;;;;;4.05;3.22;;;;;;;;;;5044375;28;20072;-30
2021/12/24 02:42:49;;;;;;;5.18;3.47;;;;;;;;;;5044404;28;20032;-31
2021/12/24 02:45:15;;;;;;;5.07;3.03;;;;;;;;;;5044023;28;20036;-33
2021/12/24 02:48:09;;;;;;;3.88;3.17;;;;;;;;;;5043607;28;20411;-34
2021/12/24 02:55:57;;;;;;;4.35;2.92;;;;;;;;;;5044776;28;20035;-31
2021/12/24 02:58:23;;;;;;;5.45;3.25;;;;;;;;;;5044970;28;20037;-30
2021/12/24 03:00:48;;;;;;;4.43;3.05;;;;;;;;;;5044806;28;20028;-32
2021/12/24 03:03:14;;;;;;;3.38;2.78;;;;;;;;;;5032338;28;20037;-29
2021/12/24 03:05:40;;;;;;;4.60;2.90;;;;;;;;;;5024814;28;20570;-31
2021/12/24 03:08:06;;;;;;;4.93;2.90;;;;;;;;;;5024590;28;20045;-31
2021/12/24 03:10:31;;;;;;;3.40;2.70;;;;;;;;;;5024391;28;20052;-34
2021/12/24 03:12:57;;;;;;;4.07;3.03;;;;;;;;;;5024653;28;20474;-31
2021/12/24 03:15:24;;;;;;;3.85;2.60;;;;;;;;;;5024520;28;20029;-30
2021/12/24 03:17:54;;;;;;;3.17;2.70;;;;;;;;;;5024015;28;20061;-32
2021/12/24 03:20:20;;;;;;;4.38;3.05;;;;;;;;;;5023745;28;20037;-34
2021/12/24 03:25:31;;;;;;;3.22;2.53;;;;;;;;;;5043579;28;20039;-34
2021/12/24 03:27:56;;;;;;;3.20;2.72;;;;;;;;;;5043385;28;20489;-35
2021/12/24 03:30:22;;;;;;;3.92;3.00;;;;;;;;;;5043822;28;20053;-32
2021/12/24 03:32:47;;;;;;;3.25;2.47;;;;;;;;;;5043373;28;20651;-31
2021/12/24 03:35:13;;;;;;;3.35;2.70;;;;;;;;;;5043406;28;20033;-33
2021/12/24 03:37:38;;;;;;;2.63;2.42;;;;;;;;;;5043624;28;20090;-32
2021/12/24 03:40:04;;;;;;;3.65;2.88;;;;;;;;;;5043495;28;20025;-32
2021/12/24 03:42:31;;;;;;;2.72;2.42;;;;;;;;;;5043461;28;20041;-30
2021/12/24 03:45:09;;;;;;;3.50;2.70;;;;;;;;;;5043227;28;20750;-33
2021/12/24 03:47:39;;;;;;;3.10;2.50;;;;;;;;;;5043366;28;20028;-31
2021/12/24 03:50:09;;;;;;;2.95;2.30;;;;;;;;;;5043143;28;20037;-34
2021/12/24 03:52:51;;;;;;;2.90;2.53;;;;;;;;;;5043284;28;20032;-34
2021/12/24 03:55:16;;;;;;;2.67;2.35;;;;;;;;;;5042844;28;20078;-30
2021/12/24 03:57:42;;;;;;;3.70;2.55;;;;;;;;;;5043107;28;20021;-29
2021/12/24 04:00:11;;;;;;;2.95;2.50;;;;;;;;;;5043366;28;20079;-32
2021/12/24 04:02:37;;;;;;;3.58;2.60;;;;;;;;;;5034858;28;20037;-34
2021/12/24 04:05:02;;;;;;;3.72;2.85;;;;;;;;;;5023312;28;20094;-32
2021/12/24 04:07:28;;;;;;;3.58;2.63;;;;;;;;;;5023017;28;20519;-35
2021/12/24 04:12:25;;;;;;;2.90;2.30;;;;;;;;;;5023201;28;20538;-32
2021/12/24 04:14:52;;;;;;;3.25;2.53;;;;;;;;;;5023117;28;20027;-30
2021/12/24 04:17:18;;;;;;;3.28;2.70;;;;;;;;;;5022581;28;20022;-31
2021/12/24 04:25:11;;;;;;;3.30;2.78;;;;;;;;;;5023541;28;20036;-29
2021/12/24 04:27:37;;;;;;;3.75;2.70;;;;;;;;;;5023730;28;20021;-32
2021/12/24 04:30:13;;;;;;;2.88;2.58;;;;;;;;;;5021427;28;20082;-32
2021/12/24 04:35:31;;;;;;;3.03;2.50;;;;;;;;;;5023011;28;20418;-35
2021/12/24 04:51:43;;;;;;;3.80;3.00;;;;;;;;;;5022575;28;20076;-31
2021/12/24 05:04:36;;;;;;;2.95;2.47;;;;;;;;;;5027086;28;20029;-28
2021/12/24 05:07:11;;;;;;;3.60;2.50;;;;;;;;;;5035205;28;20199;-33
2021/12/24 05:09:40;;;;;;;3.35;2.60;;;;;;;;;;5042303;28;20029;-31
2021/12/24 05:12:06;;;;;;;3.38;2.70;;;;;;;;;;5036354;28;20094;-27
2021/12/24 05:14:32;;;;;;;4.47;2.72;;;;;;;;;;5029298;28;20029;-32
2021/12/24 05:17:18;;;;;;;5.47;2.78;;;;;;;;;;5028708;28;20040;-28
2021/12/24 05:22:30;;;;;;;4.43;2.42;;;;;;;;;;5031708;28;20494;-29
2021/12/24 05:24:57;;;;;;;5.63;2.65;;;;;;;;;;5042215;28;20033;-32
2021/12/24 05:27:22;;;;;;;4.43;3.05;;;;;;;;;;5042311;28;20029;-29
2021/12/24 05:29:48;;;;;;;4.35;2.50;;;;;;;;;;5041761;28;20843;-34
2021/12/24 05:32:13;;;;;;;3.63;2.92;;;;;;;;;;5042021;28;20029;-31
2021/12/24 05:34:39;;;;;;;3.80;2.80;;;;;;;;;;5041925;28;20047;-29
2021/12/24 05:37:04;;;;;;;3.40;2.42;;;;;;;;;;5042112;28;20633;-34
2021/12/24 05:39:30;;;;;;;3.15;2.55;;;;;;;;;;5042357;28;20406;-32
2021/12/24 05:41:55;;;;;;;4.90;2.55;;;;;;;;;;5041954;28;20577;-34
2021/12/24 05:44:21;;;;;;;4.53;2.97;;;;;;;;;;5045611;28;20068;-29
2021/12/24 05:46:47;;;;;;;5.53;3.22;;;;;;;;;;5045625;28;20025;-32
2021/12/24 05:49:13;;;;;;;6.93;3.67;;;;;;;;;;5045889;28;20025;-31
2021/12/24 05:51:39;;;;;;;5.45;3.40;;;;;;;;;;5045536;28;20037;-31
2021/12/24 05:54:05;;;;;;;4.63;3.13;;;;;;;;;;5045540;28;20037;-28
2021/12/24 05:56:30;;;;;;;8.13;2.63;;;;;;;;;;5045996;28;20091;-30
2021/12/24 05:58:55;;;;;;;3.85;2.80;;;;;;;;;;5043996;28;20025;-28
2021/12/24 06:01:23;;;;;;;4.95;3.05;;;;;;;;;;5034530;28;20061;-29
2021/12/24 06:03:49;;;;;;;7.68;3.00;;;;;;;;;;5026308;28;20558;-33
2021/12/24 06:06:14;;;;;;;4.78;3.33;;;;;;;;;;5025609;28;20029;-29
2021/12/24 06:08:40;;;;;;;4.00;3.15;;;;;;;;;;5026003;28;20085;-30
2021/12/24 06:11:05;;;;;;;4.47;3.00;;;;;;;;;;5029434;28;20029;-32
2021/12/24 06:13:31;;;;;;;6.32;3.20;;;;;;;;;;5039136;28;20082;-32
2021/12/24 06:15:57;;;;;;;4.45;3.10;;;;;;;;;;5040027;28;20153;-32
2021/12/24 06:18:26;;;;;;;6.25;3.65;;;;;;;;;;5025574;28;20026;-29
2021/12/24 06:20:52;;;;;;;4.85;3.65;;;;;;;;;;5029107;28;20057;-29
2021/12/24 06:23:20;;;;;;;3.90;3.00;;;;;;;;;;5035245;28;20128;-29
2021/12/24 06:25:46;;;;;;;6.50;3.63;;;;;;;;;;5040018;28;20029;-33
2021/12/24 06:28:11;;;;;;;5.82;3.42;;;;;;;;;;5037814;28;20387;-30
2021/12/24 06:30:38;;;;;;;5.72;3.30;;;;;;;;;;5037298;28;20091;-28
2021/12/24 06:33:03;;;;;;;6.60;3.90;;;;;;;;;;5025157;28;20038;-32
2021/12/24 06:35:29;;;;;;;5.70;3.90;;;;;;;;;;5032148;28;20039;-30
2021/12/24 06:37:56;;;;;;;6.28;4.05;;;;;;;;;;5029298;28;20507;-28
2021/12/24 06:40:22;;;;;;;5.10;3.47;;;;;;;;;;5025109;28;20033;-30
2021/12/24 06:42:47;;;;;;;6.05;3.63;;;;;;;;;;5040114;28;20033;-35
2021/12/24 06:45:13;;;;;;;5.68;3.72;;;;;;;;;;5045077;28;20025;-30
2021/12/24 06:47:38;;;;;;;6.30;3.30;;;;;;;;;;5044529;28;20095;-29
2021/12/24 06:50:04;;;;;;;7.60;3.58;;;;;;;;;;5031038;28;20045;-33
2021/12/24 06:52:30;;;;;;;8.68;4.05;;;;;;;;;;5034506;28;20802;-32
2021/12/24 06:54:55;;;;;;;6.05;3.70;;;;;;;;;;5042919;28;20055;-30
2021/12/24 06:57:23;;;;;;;5.15;3.28;;;;;;;;;;5044241;28;20033;-32
2021/12/24 06:59:49;;;;;;;4.95;3.45;;;;;;;;;;5044128;28;20029;-32
2021/12/24 07:02:14;;;;;;;5.82;3.70;;;;;;;;;;5035753;28;20044;-30
2021/12/24 07:04:40;;;;;;;6.40;3.55;;;;;;;;;;5023551;28;20059;-35
2021/12/24 07:07:05;;;;;;;5.43;3.58;;;;;;;;;;5028456;28;20106;-31
2021/12/24 07:09:31;;;;;;;5.18;3.40;;;;;;;;;;5043962;28;20031;-30
2021/12/24 07:11:56;;;;;;;5.78;3.67;;;;;;;;;;5043803;28;20118;-30
2021/12/24 07:14:23;;;;;;;5.65;3.40;;;;;;;;;;5029370;28;20028;-34
2021/12/24 07:16:50;;;;;;;5.13;3.78;;;;;;;;;;5034347;28;20033;-31
2021/12/24 07:19:15;;;;;;;5.70;3.58;;;;;;;;;;5043827;28;20029;-31
2021/12/24 07:21:41;;;;;;;5.45;3.47;;;;;;;;;;5043382;28;20040;-33
2021/12/24 07:24:07;;;;;;;8.57;4.65;;;;;;;;;;5043826;28;20033;-31
2021/12/24 07:26:32;;;;;;;10.98;5.30;;;;;;;;;;5043630;28;20062;-34
2021/12/24 07:28:58;;;;;;;8.65;6.20;;;;;;;;;;5043830;28;20495;-29
2021/12/24 07:31:23;;;;;;;9.65;6.55;;;;;;;;;;5041453;28;20499;-32
2021/12/24 07:33:49;;;;;;;10.15;6.90;;;;;;;;;;5041933;28;20055;-29
2021/12/24 07:36:14;;;;;;;14.27;7.53;;;;;;;;;;5043383;28;20044;-33
2021/12/24 07:38:40;;;;;;;12.90;6.55;;;;;;;;;;5042999;28;20036;-32
2021/12/24 07:41:06;;;;;;;11.77;7.53;;;;;;;;;;5042908;28;20036;-31
2021/12/24 07:43:31;;;;;;;11.55;6.88;;;;;;;;;;5043331;28;20600;-32
2021/12/24 07:45:57;;;;;;;9.45;6.68;;;;;;;;;;5043145;28;20037;-31
2021/12/24 07:48:33;;;;;;;13.18;6.57;;;;;;;;;;5043358;28;20033;-31
2021/12/24 07:53:25;;;;;;;11.38;6.88;;;;;;;;;;5041748;28;20120;-32
2021/12/24 07:55:51;;;;;;;14.55;6.32;;;;;;;;;;5043033;28;20136;-27
2021/12/24 07:58:18;;;;;;;9.98;6.18;;;;;;;;;;5043366;28;20032;-26
2021/12/24 08:00:44;;;;;;;9.63;6.47;;;;;;;;;;5042555;28;20052;-32
2021/12/24 08:03:09;;;;;;;12.18;6.32;;;;;;;;;;5026726;28;20063;-34
2021/12/24 08:05:38;;;;;;;11.50;6.53;;;;;;;;;;5023383;28;20388;-34
2021/12/24 08:08:03;;;;;;;10.27;6.93;;;;;;;;;;5025303;28;20060;-32
2021/12/24 08:10:31;;;;;;;17.65;7.38;;;;;;;;;;5042284;28;20028;-28
2021/12/24 08:12:56;;;;;;;9.95;5.85;;;;;;;;;;5034516;28;20090;-32
2021/12/24 08:15:22;;;;;;;9.05;6.10;;;;;;;;;;5022973;28;20025;-30
2021/12/24 08:17:47;;;;;;;10.98;6.72;;;;;;;;;;5022698;28;20061;-33
2021/12/24 08:20:14;;;;;;;8.77;6.03;;;;;;;;;;5022818;28;20021;-31
2021/12/24 08:22:39;;;;;;;11.60;6.43;;;;;;;;;;5023286;28;20489;-32
2021/12/24 08:25:06;;;;;;;12.75;6.85;;;;;;;;;;5023255;28;20021;-33
2021/12/24 08:27:33;;;;;;;14.90;6.97;;;;;;;;;;5023090;28;20033;-30
2021/12/24 08:29:58;;;;;;;14.40;7.25;;;;;;;;;;5021869;28;20033;-34
2021/12/24 08:32:23;;;;;;;12.50;5.88;;;;;;;;;;5023046;28;20040;-31
2021/12/24 08:34:51;;;;;;;15.02;7.55;;;;;;;;;;5033626;28;20041;-30
2021/12/24 08:37:17;;;;;;;14.82;7.70;;;;;;;;;;5041052;28;20029;-30
2021/12/24 08:39:42;;;;;;;18.13;7.30;;;;;;;;;;5041772;28;20017;-35
2021/12/24 08:42:08;;;;;;;10.43;7.28;;;;;;;;;;5042506;28;20044;-29
2021/12/24 08:44:35;;;;;;;10.02;7.38;;;;;;;;;;5042899;28;20508;-30
2021/12/24 08:47:01;;;;;;;10.18;5.93;;;;;;;;;;5042356;28;20060;-30
2021/12/24 08:49:27;;;;;;;9.90;6.65;;;;;;;;;;5042592;28;20091;-33
2021/12/24 08:51:53;;;;;;;10.82;6.18;;;;;;;;;;5042454;28;20537;-36
2021/12/24 08:54:21;;;;;;;12.63;6.72;;;;;;;;;;5041638;28;20033;-29
2021/12/24 08:56:47;;;;;;;11.48;6.47;;;;;;;;;;5041503;28;20025;-34
2021/12/24 08:59:12;;;;;;;9.25;6.13;;;;;;;;;;5041943;28;20025;-32
2021/12/24 09:01:38;;;;;;;9.73;5.85;;;;;;;;;;5028623;28;20582;-35
2021/12/24 09:04:03;;;;;;;15.30;6.70;;;;;;;;;;5021326;28;20483;-29
2021/12/24 09:06:29;;;;;;;13.00;6.28;;;;;;;;;;5021457;28;20076;-30
2021/12/24 09:08:54;;;;;;;11.38;6.63;;;;;;;;;;5021107;28;20645;-34
2021/12/24 09:11:20;;;;;;;11.70;6.20;;;;;;;;;;5022119;28;20017;-34
2021/12/24 09:13:45;;;;;;;12.05;6.45;;;;;;;;;;5038257;28;20032;-29
2021/12/24 09:16:11;;;;;;;11.02;6.40;;;;;;;;;;5041633;28;20121;-29
2021/12/24 09:18:39;;;;;;;17.60;9.63;;;;;;;;;;5044229;28;20068;-30
2021/12/24 09:21:12;;;;;;;11.65;6.85;;;;;;;;;;5045986;28;20029;-31
2021/12/24 09:23:37;;;;;;;;;;;;;;;;;;5045878;28;20043;-31
2021/12/24 09:26:03;;;;;;;10.75;6.88;;;;;;;;;;5032427;28;19917;-30
2021/12/24 09:28:28;;;;;;;8.80;6.43;;;;;;;;;;5046904;28;20554;-32
2021/12/24 09:30:54;;;;;;;10.63;6.65;;;;;;;;;;5046402;28;20037;-31
2021/12/24 09:33:19;;;;;;;10.38;6.45;;;;;;;;;;5045603;28;20120;-33
2021/12/24 09:35:45;;;;;;;14.27;6.85;;;;;;;;;;5042678;28;20044;-30
2021/12/24 09:38:10;;;;;;;13.63;7.43;;;;;;;;;;5045001;28;20028;-31
2021/12/24 09:40:36;;;;;;;17.02;7.25;;;;;;;;;;5040384;28;20541;-35
2021/12/24 09:43:02;;;;;;;15.00;6.70;;;;;;;;;;5031435;28;20117;-31
2021/12/24 09:45:28;;;;;;;24.27;11.52;;;;;;;;;;5042176;28;20116;-31
2021/12/24 09:47:53;;;;;;;21.35;11.05;;;;;;;;;;5043678;28;20032;-32
2021/12/24 09:50:21;;;;;;;22.85;12.50;;;;;;;;;;5042301;28;20036;-35
2021/12/24 09:52:49;;;;;;;18.80;11.80;;;;;;;;;;5045348;28;20410;-34
2021/12/24 09:55:20;;;;;;;19.40;11.00;;;;;;;;;;5045589;28;20039;-33
2021/12/24 09:57:46;;;;;;;16.70;8.88;;;;;;;;;;5045143;28;20562;-31
2021/12/24 10:00:12;;;;;;;18.70;10.05;;;;;;;;;;5044134;28;20032;-29
2021/12/24 10:02:42;;;;;;;13.52;8.95;;;;;;;;;;5043608;28;20580;-31
2021/12/24 10:05:30;;;;;;;14.95;8.57;;;;;;;;;;5044358;28;20070;-31
2021/12/24 10:08:15;;;;;;;16.50;8.88;;;;;;;;;;5043680;28;20454;-33
2021/12/24 10:10:42;;;;;;;17.00;8.75;;;;;;;;;;5043967;28;20028;-32
2021/12/24 10:13:23;;;;;;;15.25;9.18;;;;;;;;;;5044243;28;20063;-33
2021/12/24 10:15:53;;;;;;;19.20;8.98;;;;;;;;;;5044062;28;20202;-34
2021/12/24 10:18:29;;;;;;;14.45;8.52;;;;;;;;;;5044202;28;20052;-34
2021/12/24 10:21:06;;;;;;;11.55;7.90;;;;;;;;;;5026996;28;20037;-32
2021/12/24 10:23:38;;;;;;;12.50;7.97;;;;;;;;;;5025161;28;20033;-32
2021/12/24 10:26:11;;;;;;;13.52;8.13;;;;;;;;;;5025573;28;20032;-35
2021/12/24 10:28:37;;;;;;;12.15;8.18;;;;;;;;;;5025151;28;20042;-37
2021/12/24 10:31:02;;;;;;;16.52;8.50;;;;;;;;;;5025000;28;20255;-31
2021/12/24 10:33:28;;;;;;;11.68;7.15;;;;;;;;;;5025335;28;20030;-31
2021/12/24 10:36:00;;;;;;;11.25;7.90;;;;;;;;;;5025095;28;20083;-35
2021/12/24 10:38:26;;;;;;;13.23;8.00;;;;;;;;;;5025343;28;20071;-31
2021/12/24 10:41:05;;;;;;;13.50;7.70;;;;;;;;;;5023959;28;20030;-33
2021/12/24 10:43:35;;;;;;;10.82;8.10;;;;;;;;;;5024948;28;20574;-30
2021/12/24 10:46:11;;;;;;;12.05;8.13;;;;;;;;;;5023211;28;20462;-29
2021/12/24 10:48:38;;;;;;;12.05;7.70;;;;;;;;;;5024783;28;20029;-31
2021/12/24 10:51:19;;;;;;;11.35;7.32;;;;;;;;;;5024409;28;20121;-31
2021/12/24 10:54:06;;;;;;;15.35;8.52;;;;;;;;;;5024839;28;20164;-31
2021/12/24 10:56:31;;;;;;;12.05;7.90;;;;;;;;;;5024785;28;20037;-31
2021/12/24 10:59:45;;;;;;;14.95;8.23;;;;;;;;;;5024403;28;20029;-33
2021/12/24 11:02:11;;;;;;;13.00;8.60;;;;;;;;;;5035048;28;20528;-32
2021/12/24 11:04:37;;;;;;;12.40;7.72;;;;;;;;;;5044947;28;20112;-30
2021/12/24 11:07:03;;;;;;;12.20;7.65;;;;;;;;;;5044126;28;20171;-30
2021/12/24 11:09:28;;;;;;;13.00;8.00;;;;;;;;;;5043443;28;20028;-32
2021/12/24 11:11:58;;;;;;;13.77;7.97;;;;;;;;;;5044228;28;20443;-29
2021/12/24 11:14:23;;;;;;;13.55;8.00;;;;;;;;;;5044044;28;20025;-29
2021/12/24 11:16:49;;;;;;;12.30;7.70;;;;;;;;;;5044296;28;20025;-31
2021/12/24 11:19:14;;;;;;;16.25;8.25;;;;;;;;;;5044224;28;20075;-34
2021/12/24 11:21:40;;;;;;;13.90;7.80;;;;;;;;;;5044158;28;20048;-32
2021/12/24 11:24:06;;;;;;;13.23;8.27;;;;;;;;;;5044092;28;20056;-31
2021/12/24 11:26:39;;;;;;;12.43;7.53;;;;;;;;;;5042481;28;20025;-29
2021/12/24 11:29:05;;;;;;;11.63;7.43;;;;;;;;;;5042646;28;20059;-31
2021/12/24 11:31:32;;;;;;;12.07;7.72;;;;;;;;;;5044043;28;20068;-35
2021/12/24 11:34:00;;;;;;;12.15;7.45;;;;;;;;;;5043815;28;20067;-29
2021/12/24 11:36:29;;;;;;;11.40;7.57;;;;;;;;;;5043830;28;20618;-31
2021/12/24 11:38:59;;;;;;;11.35;7.40;;;;;;;;;;5043772;28;20112;-29
2021/12/24 11:41:27;;;;;;;11.95;7.47;;;;;;;;;;5043161;28;20125;-31
2021/12/24 11:43:54;;;;;;;13.77;7.72;;;;;;;;;;5043631;28;20985;-30
2021/12/24 11:46:21;;;;;;;12.88;7.43;;;;;;;;;;5043867;28;20430;-31
2021/12/24 11:48:48;;;;;;;12.10;7.68;;;;;;;;;;5043536;28;20032;-30
2021/12/24 11:51:18;;;;;;;11.48;6.97;;;;;;;;;;5043557;28;20083;-32
2021/12/24 11:53:44;;;;;;;11.20;6.65;;;;;;;;;;5043297;28;20112;-31
2021/12/24 11:56:13;;;;;;;9.32;6.63;;;;;;;;;;5043484;28;20107;-32
2021/12/24 11:58:51;;;;;;;10.85;6.95;;;;;;;;;;5043414;28;20033;-34
2021/12/24 12:01:18;;;;;;;11.65;6.82;;;;;;;;;;5040091;28;20068;-32
2021/12/24 12:03:52;;;;;;;12.27;6.95;;;;;;;;;;5023189;28;20040;-32
2021/12/24 12:06:17;;;;;;;10.60;6.60;;;;;;;;;;5023852;28;20422;-37
2021/12/24 12:08:46;;;;;;;11.18;6.15;;;;;;;;;;5023561;28;20046;-34
2021/12/24 12:11:17;;;;;;;11.10;6.93;;;;;;;;;;5023408;28;20053;-31
2021/12/24 12:14:02;;;;;;;10.57;6.18;;;;;;;;;;5023707;28;20180;-36
2021/12/24 12:16:43;;;;;;;12.30;6.72;;;;;;;;;;5023399;28;20049;-31
2021/12/24 12:22:20;;;;;;;9.48;6.35;;;;;;;;;;5023104;28;20033;-33
2021/12/24 12:25:00;;;;;;;9.60;6.50;;;;;;;;;;5022948;28;20039;-30
2021/12/24 12:27:40;;;;;;;12.63;6.38;;;;;;;;;;5023632;28;20084;-35
2021/12/24 12:30:21;;;;;;;9.15;6.18;;;;;;;;;;5023067;28;20189;-28
2021/12/24 12:32:46;;;;;;;9.30;6.32;;;;;;;;;;5022583;28;20037;-30
2021/12/24 12:35:12;;;;;;;8.77;5.43;;;;;;;;;;5023218;28;20088;-32
2021/12/24 12:37:45;;;;;;;8.02;5.97;;;;;;;;;;5022856;28;20031;-32
2021/12/24 12:40:17;;;;;;;9.38;5.80;;;;;;;;;;5023391;28;20100;-29
2021/12/24 12:42:49;;;;;;;11.25;5.47;;;;;;;;;;5036268;28;20178;-29
2021/12/24 12:45:15;;;;;;;8.80;5.65;;;;;;;;;;5042878;28;20116;-32
2021/12/24 12:48:00;;;;;;;9.65;5.72;;;;;;;;;;5042423;28;20457;-32
2021/12/24 12:50:26;;;;;;;9.65;5.63;;;;;;;;;;5043163;28;20028;-31
2021/12/24 12:53:25;;;;;;;9.20;5.10;;;;;;;;;;5043738;28;20111;-30
2021/12/24 12:56:10;;;;;;;8.10;4.70;;;;;;;;;;5046728;28;20033;-35
2021/12/24 12:58:35;;;;;;;7.45;4.97;;;;;;;;;;5046965;28;20044;-31
2021/12/24 13:01:04;;;;;;;7.32;5.15;;;;;;;;;;5044357;28;20025;-36
2021/12/24 13:03:31;;;;;;;7.40;5.38;;;;;;;;;;5026939;28;20045;-30
2021/12/24 13:06:04;;;;;;;6.93;4.75;;;;;;;;;;5026612;28;20043;-29
2021/12/24 13:08:32;;;;;;;9.48;5.22;;;;;;;;;;5026671;28;20431;-30
2021/12/24 13:10:58;;;;;;;7.20;4.82;;;;;;;;;;5025534;28;20086;-34
2021/12/24 13:13:24;;;;;;;6.45;4.78;;;;;;;;;;5026525;28;20534;-32
2021/12/24 13:15:50;;;;;;;7.22;5.10;;;;;;;;;;5026266;28;20083;-33
2021/12/24 13:18:26;;;;;;;7.22;4.60;;;;;;;;;;5026786;28;20029;-34
2021/12/24 13:23:33;;;;;;;6.60;4.30;;;;;;;;;;5026546;28;20507;-31
2021/12/24 13:26:10;;;;;;;6.07;4.30;;;;;;;;;;5026454;28;20478;-29
2021/12/24 13:29:02;;;;;;;7.32;4.95;;;;;;;;;;5026521;28;20113;-36
2021/12/24 13:31:29;;;;;;;6.18;4.07;;;;;;;;;;5026245;28;20029;-30
2021/12/24 13:33:54;;;;;;;7.00;4.38;;;;;;;;;;5026213;28;20515;-30
2021/12/24 13:36:24;;;;;;;6.18;4.03;;;;;;;;;;5026645;28;20029;-32
2021/12/24 13:38:49;;;;;;;6.18;4.32;;;;;;;;;;5025909;28;20040;-32
2021/12/24 13:41:15;;;;;;;6.38;4.20;;;;;;;;;;5026424;28;20034;-30
2021/12/24 13:43:40;;;;;;;6.40;4.70;;;;;;;;;;5026028;28;20025;-33
2021/12/24 13:46:07;;;;;;;5.65;4.05;;;;;;;;;;5026045;28;20033;-31
2021/12/24 13:48:45;;;;;;;6.57;3.85;;;;;;;;;;5026456;28;20053;-30
2021/12/24 13:56:52;;;;;;;6.13;4.53;;;;;;;;;;5026276;28;20122;-34
2021/12/24 13:59:22;;;;;;;6.57;3.87;;;;;;;;;;5025719;28;20029;-28
2021/12/24 14:01:48;;;;;;;6.13;4.25;;;;;;;;;;5034123;28;20327;-32
2021/12/24 14:04:18;;;;;;;5.28;3.72;;;;;;;;;;5044942;28;20763;-31
2021/12/24 14:06:45;;;;;;;6.53;3.90;;;;;;;;;;5045088;28;20044;-34
2021/12/24 14:09:16;;;;;;;5.70;4.10;;;;;;;;;;5045228;28;20031;-32
2021/12/24 14:11:43;;;;;;;5.10;3.65;;;;;;;;;;5045256;28;20032;-29
2021/12/24 14:14:37;;;;;;;5.72;4.05;;;;;;;;;;5045546;28;20052;-34
2021/12/24 14:19:48;;;;;;;5.93;3.75;;;;;;;;;;5045130;28;20479;-33
2021/12/24 14:22:15;;;;;;;5.75;3.75;;;;;;;;;;5044283;28;20021;-35
2021/12/24 14:24:51;;;;;;;5.55;3.90;;;;;;;;;;5045481;28;20052;-35
2021/12/24 14:27:18;;;;;;;5.25;4.03;;;;;;;;;;5045324;28;20025;-35
2021/12/24 14:29:45;;;;;;;6.28;3.95;;;;;;;;;;5045180;28;20120;-30
2021/12/24 14:32:13;;;;;;;5.10;3.72;;;;;;;;;;5044903;28;20032;-33
2021/12/24 14:34:49;;;;;;;5.07;3.30;;;;;;;;;;5045013;28;20041;-29
2021/12/24 14:37:19;;;;;;;5.68;3.83;;;;;;;;;;5045187;28;20044;-33
2021/12/24 14:39:56;;;;;;;5.13;3.60;;;;;;;;;;5044726;28;20510;-31
2021/12/24 14:42:47;;;;;;;4.75;3.53;;;;;;;;;;5044987;28;20037;-30
2021/12/24 14:45:24;;;;;;;5.13;3.67;;;;;;;;;;5044929;28;20033;-29
2021/12/24 14:48:05;;;;;;;5.63;3.70;;;;;;;;;;5044751;28;20052;-37
2021/12/24 14:50:32;;;;;;;5.47;3.38;;;;;;;;;;5045079;28;20529;-31
2021/12/24 14:53:08;;;;;;;5.45;3.65;;;;;;;;;;5044363;28;20086;-33
2021/12/24 14:55:50;;;;;;;4.75;3.25;;;;;;;;;;5044834;28;20104;-31
2021/12/24 14:58:29;;;;;;;4.43;3.22;;;;;;;;;;5044672;28;20033;-30
2021/12/24 15:00:54;;;;;;;5.35;3.42;;;;;;;;;;5043887;28;20042;-33
2021/12/24 15:03:21;;;;;;;6.10;3.42;;;;;;;;;;5024408;28;20474;-32
2021/12/24 15:05:48;;;;;;;5.20;3.50;;;;;;;;;;5024455;28;20029;-34
2021/12/24 15:08:14;;;;;;;4.63;3.50;;;;;;;;;;5024487;28;20846;-30
2021/12/24 15:10:41;;;;;;;5.75;3.78;;;;;;;;;;5024475;28;20033;-30
2021/12/24 15:13:18;;;;;;;4.85;3.38;;;;;;;;;;5024285;28;20037;-32
2021/12/24 15:15:51;;;;;;;4.43;3.28;;;;;;;;;;5023412;28;20108;-29
2021/12/24 15:18:16;;;;;;;5.27;3.53;;;;;;;;;;5022823;28;20040;-34
2021/12/24 15:20:42;;;;;;;4.32;3.33;;;;;;;;;;5022949;28;20026;-36
2021/12/24 15:23:07;;;;;;;4.22;3.03;;;;;;;;;;5023982;28;20098;-32
2021/12/24 15:25:34;;;;;;;4.00;2.90;;;;;;;;;;5024133;28;20091;-34
2021/12/24 15:28:06;;;;;;;4.35;3.03;;;;;;;;;;5024452;28;20037;-31
2021/12/24 15:30:32;;;;;;;4.13;3.45;;;;;;;;;;5024056;28;20025;-35
2021/12/24 15:32:58;;;;;;;4.25;3.20;;;;;;;;;;5023950;28;20037;-35
2021/12/24 15:35:23;;;;;;;4.05;3.10;;;;;;;;;;5023977;28;20033;-32
2021/12/24 15:37:49;;;;;;;3.55;2.60;;;;;;;;;;5023558;28;20025;-32
2021/12/24 15:40:14;;;;;;;3.75;2.80;;;;;;;;;;5023952;28;20025;-31
2021/12/24 15:42:40;;;;;;;3.85;2.95;;;;;;;;;;5023901;28;20112;-31
2021/12/24 15:45:06;;;;;;;4.13;3.40;;;;;;;;;;5023591;28;20084;-32
2021/12/24 15:47:31;;;;;;;4.00;2.70;;;;;;;;;;5024033;28;20025;-31
2021/12/24 15:49:57;;;;;;;4.15;2.85;;;;;;;;;;5023845;28;20029;-30
2021/12/24 15:52:23;;;;;;;3.55;2.63;;;;;;;;;;5023598;28;20545;-34
2021/12/24 15:54:48;;;;;;;3.30;2.60;;;;;;;;;;5023687;28;20037;-33
2021/12/24 15:57:14;;;;;;;4.07;2.83;;;;;;;;;;5023663;28;20045;-31
2021/12/24 15:59:40;;;;;;;3.58;2.97;;;;;;;;;;5023609;28;20033;-32
2021/12/24 16:02:07;;;;;;;3.30;2.60;;;;;;;;;;5023866;28;20443;-29
2021/12/24 16:04:35;;;;;;;3.22;2.40;;;;;;;;;;5023328;28;20422;-32
2021/12/24 16:07:05;;;;;;;4.15;2.70;;;;;;;;;;5023218;28;20065;-31
2021/12/24 16:09:30;;;;;;;3.45;2.72;;;;;;;;;;5023736;28;20029;-31
2021/12/24 16:11:56;;;;;;;3.58;2.80;;;;;;;;;;5022863;28;20038;-30
2021/12/24 16:14:22;;;;;;;3.85;2.80;;;;;;;;;;5023358;28;20021;-34
2021/12/24 16:16:47;;;;;;;3.65;2.78;;;;;;;;;;5023870;28;20457;-34
2021/12/24 16:19:13;;;;;;;3.25;2.53;;;;;;;;;;5025846;28;20111;-35
2021/12/24 16:21:39;;;;;;;3.10;2.58;;;;;;;;;;5042948;28;20037;-34
2021/12/24 16:24:05;;;;;;;4.07;2.72;;;;;;;;;;5043050;28;20561;-30
2021/12/24 16:26:31;;;;;;;3.95;2.70;;;;;;;;;;5042875;28;20029;-32
2021/12/24 16:28:57;;;;;;;3.72;2.85;;;;;;;;;;5042952;28;20033;-32
2021/12/24 16:31:22;;;;;;;3.55;2.60;;;;;;;;;;5042738;28;20048;-33
2021/12/24 16:33:48;;;;;;;3.83;2.53;;;;;;;;;;5042572;28;20032;-34
2021/12/24 16:36:13;;;;;;;4.05;2.90;;;;;;;;;;5058062;28;20029;-34
2021/12/24 16:38:39;;;;;;;3.55;2.80;;;;;;;;;;5042929;28;20471;-30